ENGM/OSL METAR and TAF weather

Enter ICAO airport designator
Station Type Date Time Source
ENGM METAR 2022/06/30 01:50 UTC NOAA

ENGM 300150Z 35003KT 300V030 CAVOK 13/10 Q1018


Station Type Date Time Source
ENGM Decoded METAR 2022/06/30 01:50 UTC NOAA

Oslo / Gardermoen, Norway (ENGM) 60-12N 011-05E 204M
Jun 29, 2022 - 09:50 PM EDT / 2022.06.30 0150 UTC
Wind: from the N (350 degrees) at 3 MPH (3 KT) (direction variable):0
Visibility: greater than 7 mile(s):0
Temperature: 55 F (13 C)
Dew Point: 50 F (10 C)
Relative Humidity: 81%
Pressure (altimeter): 30.06 in. Hg (1018 hPa)
ob: ENGM 300150Z 35003KT 300V030 CAVOK 13/10 Q1018
cycle: 2

Station Type Date Time Source
ENGM TAF 2022/06/29 18:57 UTC NOAA

TAF ENGM 291700Z 2918/3018 19010KT CAVOK
BECMG 2919/2921 VRB05KT
BECMG 3010/3012 19010KT

Example: see airport list